Time;durP1;ratioP1;P1;durP2;ratioP2;P2;SDS_P1;SDS_P2;PMS_P1;PMS_P2;Temp;Humidity;BMP_temperature;BMP_pressure;BME280_temperature;BME280_humidity;BME280_pressure;Samples;Min_cycle;Max_cycle;Signal;HPM_P1;HPM_P2
2021/09/03 00:01:03;;;;;;;1999.90;999.90;;;11.40;99.90;;;;;;4993253;28;20409;-85
2021/09/03 00:03:29;;;;;;;1999.90;999.90;;;11.40;99.90;;;;;;4993064;28;20038;-82
2021/09/03 00:05:55;;;;;;;1999.90;999.90;;;11.40;99.90;;;;;;4994411;28;20046;-84
2021/09/03 00:08:21;;;;;;;1999.90;999.90;;;11.50;99.90;;;;;;4993403;28;20466;-82
2021/09/03 00:10:46;;;;;;;1999.90;999.90;;;11.50;99.90;;;;;;4993149;28;20032;-82
2021/09/03 00:13:12;;;;;;;1999.90;999.90;;;11.40;99.90;;;;;;4993062;28;20027;-83
2021/09/03 00:15:38;;;;;;;1999.90;999.90;;;11.40;99.90;;;;;;4993419;28;20461;-82
2021/09/03 00:18:04;;;;;;;1999.90;999.90;;;11.40;99.90;;;;;;4993251;28;20026;-83
2021/09/03 00:20:29;;;;;;;1999.90;999.90;;;11.30;99.90;;;;;;4993142;28;20045;-84
2021/09/03 00:22:55;;;;;;;1999.90;999.90;;;11.30;99.90;;;;;;4993022;28;20030;-87
2021/09/03 00:25:21;;;;;;;1999.90;999.90;;;11.10;99.90;;;;;;4993349;28;20485;-85
2021/09/03 00:27:46;;;;;;;1999.90;999.90;;;11.10;99.90;;;;;;4997007;28;20027;-84
2021/09/03 00:30:14;;;;;;;1999.90;999.90;;;11.10;99.90;;;;;;4996854;28;20054;-82
2021/09/03 00:32:40;;;;;;;1999.90;999.90;;;11.10;99.90;;;;;;4996572;28;20030;-85
2021/09/03 00:35:07;;;;;;;1999.90;999.90;;;11.10;99.90;;;;;;4996778;28;20030;-85
2021/09/03 00:37:33;;;;;;;1999.90;999.90;;;11.10;99.90;;;;;;4996575;28;20022;-83
2021/09/03 00:39:59;;;;;;;1999.90;999.90;;;11.10;99.90;;;;;;4997917;28;20046;-86
2021/09/03 00:42:25;;;;;;;1999.90;999.90;;;11.10;99.90;;;;;;4996285;28;20026;-85
2021/09/03 00:44:51;;;;;;;1999.90;999.90;;;11.10;99.90;;;;;;4996447;28;20061;-83
2021/09/03 00:47:17;;;;;;;1999.90;999.90;;;11.10;99.90;;;;;;4996384;28;20056;-83
2021/09/03 00:49:43;;;;;;;1999.90;999.90;;;11.10;99.90;;;;;;4996434;28;20018;-84
2021/09/03 00:52:10;;;;;;;1999.90;999.90;;;11.00;99.90;;;;;;4996378;28;20031;-83
2021/09/03 00:54:36;;;;;;;1999.90;999.90;;;11.00;99.90;;;;;;4996131;28;20088;-84
2021/09/03 00:57:02;;;;;;;1999.90;999.90;;;11.00;99.90;;;;;;4996361;28;20023;-84
2021/09/03 00:59:28;;;;;;;1999.90;999.90;;;11.00;99.90;;;;;;4996446;28;20033;-84
2021/09/03 01:01:54;;;;;;;1999.90;999.90;;;11.00;99.90;;;;;;4996233;28;20057;-81
2021/09/03 01:04:20;;;;;;;1999.90;999.90;;;10.90;99.90;;;;;;4995956;28;20085;-83
2021/09/03 01:06:46;;;;;;;1999.90;999.90;;;10.90;99.90;;;;;;4996087;28;20022;-86
2021/09/03 01:09:12;;;;;;;1999.90;999.90;;;10.90;99.90;;;;;;4996178;28;20170;-82
2021/09/03 01:11:38;;;;;;;1999.90;999.90;;;10.80;99.90;;;;;;4996215;28;20023;-83
2021/09/03 01:14:03;;;;;;;1999.90;999.90;;;10.90;99.90;;;;;;4996199;28;20488;-83
2021/09/03 01:16:29;;;;;;;1999.90;999.90;;;10.80;99.90;;;;;;4996098;28;20022;-86
2021/09/03 01:18:55;;;;;;;1999.90;999.90;;;10.80;99.90;;;;;;4996049;28;20026;-84
2021/09/03 01:21:21;;;;;;;1999.90;999.90;;;10.90;99.90;;;;;;4996153;28;20052;-84
2021/09/03 01:23:46;;;;;;;1999.90;999.90;;;10.90;99.90;;;;;;4995905;28;20034;-85
2021/09/03 01:26:12;;;;;;;1999.90;999.90;;;10.90;99.90;;;;;;4995692;28;20026;-86
2021/09/03 01:28:39;;;;;;;1999.90;999.90;;;10.90;99.90;;;;;;4995879;28;20101;-84
2021/09/03 01:31:05;;;;;;;1999.90;999.90;;;10.80;99.90;;;;;;4995344;28;20018;-81
2021/09/03 01:33:31;;;;;;;1999.90;999.90;;;10.80;99.90;;;;;;4995628;28;20082;-83
2021/09/03 01:35:56;;;;;;;1999.90;999.90;;;10.70;99.90;;;;;;4995475;28;20478;-84
2021/09/03 01:38:23;;;;;;;1999.90;999.90;;;10.70;99.90;;;;;;4995100;28;20449;-83
2021/09/03 01:40:49;;;;;;;1999.90;999.90;;;10.60;99.90;;;;;;4995556;28;20057;-83
2021/09/03 01:43:15;;;;;;;1999.90;999.90;;;10.60;99.90;;;;;;4995413;28;20030;-84
2021/09/03 01:45:41;;;;;;;1999.90;999.90;;;10.50;99.90;;;;;;4995524;28;20026;-85
2021/09/03 01:48:07;;;;;;;1999.90;999.90;;;10.50;99.90;;;;;;4995299;28;20030;-86
2021/09/03 01:50:33;;;;;;;1999.90;999.90;;;10.40;99.90;;;;;;4995318;28;20023;-83
2021/09/03 01:52:58;;;;;;;1999.90;999.90;;;10.40;99.90;;;;;;4996272;28;20050;-84
2021/09/03 01:55:24;;;;;;;1999.90;999.90;;;10.40;99.90;;;;;;4996290;28;20398;-84
2021/09/03 01:57:50;;;;;;;1999.90;999.90;;;10.40;99.90;;;;;;4995237;28;20030;-85
2021/09/03 02:00:16;;;;;;;1999.90;999.90;;;10.40;99.90;;;;;;4995141;28;20109;-82
2021/09/03 02:02:42;;;;;;;1999.90;999.90;;;10.40;99.90;;;;;;4994938;28;20031;-83
2021/09/03 02:05:09;;;;;;;1999.90;999.90;;;10.40;99.90;;;;;;4996157;28;20545;-84
2021/09/03 02:07:35;;;;;;;1999.90;999.90;;;10.30;99.90;;;;;;4994898;28;20022;-82
2021/09/03 02:10:02;;;;;;;1999.90;999.90;;;10.30;99.90;;;;;;4994880;28;20030;-82
2021/09/03 02:12:28;;;;;;;1999.90;999.90;;;10.40;99.90;;;;;;4994686;28;20109;-84
2021/09/03 02:14:54;;;;;;;1999.90;999.90;;;10.50;99.90;;;;;;4994895;28;20046;-84
2021/09/03 02:17:19;;;;;;;1999.90;999.90;;;10.40;99.90;;;;;;4995101;28;20022;-84
2021/09/03 02:19:45;;;;;;;1999.90;999.90;;;10.50;99.90;;;;;;4994840;28;20026;-82
2021/09/03 02:22:11;;;;;;;1999.90;999.90;;;10.50;99.90;;;;;;4994615;28;20033;-86
2021/09/03 02:24:36;;;;;;;1999.90;999.90;;;10.50;99.90;;;;;;4994796;28;20039;-82
2021/09/03 02:27:02;;;;;;;1999.90;999.90;;;10.40;99.90;;;;;;4994693;28;20026;-84
2021/09/03 02:29:28;;;;;;;1999.90;999.90;;;10.40;99.90;;;;;;4994574;28;20039;-82
2021/09/03 02:31:54;;;;;;;1999.90;999.90;;;10.40;99.90;;;;;;4994557;28;20033;-81
2021/09/03 02:34:22;;;;;;;1999.90;999.90;;;10.40;99.90;;;;;;4994459;28;20180;-84
2021/09/03 02:36:47;;;;;;;1999.90;999.90;;;10.40;99.90;;;;;;4994388;28;20049;-83
2021/09/03 02:39:13;;;;;;;1999.90;999.90;;;10.30;99.90;;;;;;4994305;28;20485;-86
2021/09/03 02:41:39;;;;;;;1999.90;999.90;;;10.30;99.90;;;;;;4994357;28;20029;-82
2021/09/03 02:44:05;;;;;;;1999.90;999.90;;;10.20;99.90;;;;;;4994081;28;20209;-83
2021/09/03 02:46:30;;;;;;;1999.90;999.90;;;10.20;99.90;;;;;;4994126;28;20033;-83
2021/09/03 02:48:56;;;;;;;1999.90;999.90;;;10.20;99.90;;;;;;4993636;28;20478;-83
2021/09/03 02:51:22;;;;;;;1999.90;999.90;;;10.20;99.90;;;;;;4993747;28;20026;-83
2021/09/03 02:53:47;;;;;;;1999.90;999.90;;;10.20;99.90;;;;;;4994024;28;20052;-83
2021/09/03 02:56:13;;;;;;;1999.90;999.90;;;10.10;99.90;;;;;;4993809;28;20065;-80
2021/09/03 02:58:38;;;;;;;1999.90;999.90;;;10.10;99.90;;;;;;4994084;28;20089;-83
2021/09/03 03:01:04;;;;;;;1999.90;999.90;;;10.00;99.90;;;;;;4994098;28;20097;-83
2021/09/03 03:03:30;;;;;;;1999.90;999.90;;;9.90;99.90;;;;;;4993845;28;20066;-83
2021/09/03 03:05:55;;;;;;;1999.90;999.90;;;9.90;99.90;;;;;;4993897;28;20023;-84
2021/09/03 03:08:21;;;;;;;1999.90;999.90;;;9.90;99.90;;;;;;4993985;28;20088;-85
2021/09/03 03:10:47;;;;;;;1999.90;999.90;;;9.90;99.90;;;;;;4994010;28;20081;-84
2021/09/03 03:13:25;;;;;;;1999.90;999.90;;;9.90;99.90;;;;;;4993764;28;20023;-83
2021/09/03 03:15:52;;;;;;;1999.90;999.90;;;9.90;99.90;;;;;;4993699;28;20029;-87
2021/09/03 03:18:18;;;;;;;1999.90;999.90;;;9.90;99.90;;;;;;4993744;28;20450;-83
2021/09/03 03:20:45;;;;;;;1999.90;999.90;;;9.90;99.90;;;;;;4994039;28;20064;-84
2021/09/03 03:23:10;;;;;;;1999.90;999.90;;;10.00;99.90;;;;;;4993360;28;20086;-86
2021/09/03 03:25:36;;;;;;;1999.90;999.90;;;10.00;99.90;;;;;;4993531;28;20086;-83
2021/09/03 03:28:02;;;;;;;1999.90;999.90;;;9.90;99.90;;;;;;4993467;28;20077;-84
2021/09/03 03:30:28;;;;;;;1999.90;999.90;;;9.90;99.90;;;;;;4993557;28;20088;-86
2021/09/03 03:32:53;;;;;;;1999.90;999.90;;;9.90;99.90;;;;;;4993545;28;20026;-82
2021/09/03 03:35:19;;;;;;;1999.90;999.90;;;9.90;99.90;;;;;;4993774;28;20034;-84
2021/09/03 03:37:45;;;;;;;1999.90;999.90;;;9.90;99.90;;;;;;4993611;28;20026;-82
2021/09/03 03:40:11;;;;;;;1999.90;999.90;;;9.80;99.90;;;;;;4993445;28;20038;-82
2021/09/03 03:42:37;;;;;;;1999.90;999.90;;;9.80;99.90;;;;;;4993379;28;20037;-86
2021/09/03 03:45:03;;;;;;;1999.90;999.90;;;9.80;99.90;;;;;;4993486;28;20034;-84
2021/09/03 03:47:29;;;;;;;1999.90;999.90;;;9.80;99.90;;;;;;4993450;28;20482;-82
2021/09/03 03:49:54;;;;;;;1999.90;999.90;;;9.70;99.90;;;;;;4993458;28;20033;-84
2021/09/03 03:52:20;;;;;;;1999.90;999.90;;;9.80;99.90;;;;;;4993286;28;20474;-82
2021/09/03 03:54:46;;;;;;;1999.90;999.90;;;9.80;99.90;;;;;;4994198;28;20457;-83
2021/09/03 03:57:11;;;;;;;1999.90;999.90;;;9.80;99.90;;;;;;4993449;28;20026;-82
2021/09/03 03:59:37;;;;;;;1999.90;999.90;;;9.80;99.90;;;;;;4993362;28;20454;-83
2021/09/03 04:02:03;;;;;;;1999.90;999.90;;;9.80;99.90;;;;;;4996198;28;20026;-86
2021/09/03 04:04:29;;;;;;;1999.90;999.90;;;9.80;99.90;;;;;;4997316;28;20070;-83
2021/09/03 04:06:54;;;;;;;1999.90;999.90;;;9.80;99.90;;;;;;4997145;28;20022;-81
2021/09/03 04:09:20;;;;;;;1999.90;999.90;;;9.80;99.90;;;;;;4997270;28;20117;-84
2021/09/03 04:11:47;;;;;;;1999.90;999.90;;;9.80;99.90;;;;;;4996888;28;20023;-84
2021/09/03 04:14:15;;;;;;;1999.90;999.90;;;9.80;99.90;;;;;;4997028;28;20053;-83
2021/09/03 04:16:41;;;;;;;1999.90;999.90;;;9.80;99.90;;;;;;4998024;28;20471;-83
2021/09/03 04:19:06;;;;;;;1999.90;999.90;;;9.70;99.90;;;;;;4997914;28;20113;-82
2021/09/03 04:21:32;;;;;;;1999.90;999.90;;;9.70;99.90;;;;;;4997142;28;20023;-82
2021/09/03 04:23:58;;;;;;;1999.90;999.90;;;9.70;99.90;;;;;;4996639;28;20031;-83
2021/09/03 04:26:23;;;;;;;1999.90;999.90;;;9.60;99.90;;;;;;4996628;28;20030;-83
2021/09/03 04:28:49;;;;;;;1999.90;999.90;;;9.70;99.90;;;;;;4996812;28;20117;-83
2021/09/03 04:31:15;;;;;;;1999.90;999.90;;;9.70;99.90;;;;;;4996837;28;20470;-83
2021/09/03 04:33:40;;;;;;;1999.90;999.90;;;9.60;99.90;;;;;;4996524;28;20470;-82
2021/09/03 04:36:06;;;;;;;1999.90;999.90;;;9.60;99.90;;;;;;4996689;28;20026;-82
2021/09/03 04:38:32;;;;;;;1999.90;999.90;;;9.50;99.90;;;;;;4996593;28;20423;-85
2021/09/03 04:40:58;;;;;;;1999.90;999.90;;;9.50;99.90;;;;;;4996616;28;20034;-83
2021/09/03 04:43:24;;;;;;;1999.90;999.90;;;9.50;99.90;;;;;;4996385;28;20133;-86
2021/09/03 04:45:50;;;;;;;1999.90;999.90;;;9.60;99.90;;;;;;4998251;28;20030;-85
2021/09/03 04:48:16;;;;;;;1999.90;999.90;;;11.50;99.90;;;;;;5001917;28;20034;-87
2021/09/03 04:50:41;;;;;;;1999.90;999.90;;;12.40;99.90;;;;;;5000660;28;20030;-85
2021/09/03 04:53:07;;;;;;;1999.90;999.90;;;13.00;99.90;;;;;;4996433;28;20050;-85
2021/09/03 04:55:33;;;;;;;1999.90;999.90;;;13.30;99.90;;;;;;4996062;28;20150;-85
2021/09/03 04:57:59;;;;;;;1999.90;999.90;;;13.50;99.90;;;;;;4997621;28;20023;-82
2021/09/03 05:00:24;;;;;;;1999.90;999.90;;;14.00;99.90;;;;;;4996677;28;20513;-83
2021/09/03 05:02:50;;;;;;;1999.90;999.90;;;14.20;99.90;;;;;;4996332;28;20054;-85
2021/09/03 05:05:17;;;;;;;1999.90;999.90;;;14.20;99.90;;;;;;4996366;28;20507;-84
2021/09/03 05:07:42;;;;;;;1999.90;999.90;;;14.00;99.90;;;;;;4996393;28;20032;-83
2021/09/03 05:10:09;;;;;;;1999.90;999.90;;;14.00;99.90;;;;;;4996313;28;20121;-83
2021/09/03 05:12:36;;;;;;;1999.90;999.90;;;14.10;99.90;;;;;;4995337;28;20033;-83
2021/09/03 05:15:08;;;;;;;1999.90;999.90;;;14.20;99.90;;;;;;4995992;28;20072;-83
2021/09/03 05:17:33;;;;;;;1999.90;999.90;;;14.30;99.90;;;;;;4995835;28;20022;-84
2021/09/03 05:19:59;;;;;;;1999.90;999.90;;;14.00;99.90;;;;;;4995827;28;20034;-83
2021/09/03 05:22:25;;;;;;;1999.90;999.90;;;14.20;99.90;;;;;;4995916;28;20072;-85
2021/09/03 05:24:50;;;;;;;1999.90;999.90;;;14.00;99.90;;;;;;4995788;28;20470;-83
2021/09/03 05:27:16;;;;;;;1999.90;999.90;;;14.30;99.90;;;;;;4995862;28;20106;-85
2021/09/03 05:29:42;;;;;;;1999.90;999.90;;;14.20;99.90;;;;;;4995648;28;20030;-85
2021/09/03 05:32:07;;;;;;;1999.90;999.90;;;14.50;99.90;;;;;;4995772;28;20022;-83
2021/09/03 05:34:33;;;;;;;1999.90;999.90;;;14.30;99.90;;;;;;4995616;28;20042;-83
2021/09/03 05:36:59;;;;;;;1999.90;999.90;;;14.10;99.90;;;;;;4995693;28;20029;-84
2021/09/03 05:39:25;;;;;;;1999.90;999.90;;;14.40;99.90;;;;;;4995650;28;20030;-85
2021/09/03 05:41:50;;;;;;;1999.90;999.90;;;14.20;99.90;;;;;;4995204;28;20022;-85
2021/09/03 05:44:16;;;;;;;1999.90;999.90;;;13.40;99.90;;;;;;4995163;28;20130;-83
2021/09/03 05:46:42;;;;;;;1999.90;999.90;;;12.80;99.90;;;;;;4995355;28;20022;-82
2021/09/03 05:49:07;;;;;;;1999.90;999.90;;;12.40;99.90;;;;;;4995558;28;20022;-85
2021/09/03 05:51:33;;;;;;;1999.90;999.90;;;12.10;99.90;;;;;;4995260;28;20026;-85
2021/09/03 05:54:01;;;;;;;1999.90;999.90;;;11.90;99.90;;;;;;4995094;28;20027;-86
2021/09/03 05:56:26;;;;;;;1999.90;999.90;;;11.80;99.90;;;;;;4995092;28;20118;-83
2021/09/03 05:58:52;;;;;;;1999.90;999.90;;;11.70;99.90;;;;;;4995190;28;20038;-86
2021/09/03 06:01:18;;;;;;;1999.90;999.90;;;11.70;99.90;;;;;;4995352;28;20019;-86
2021/09/03 06:03:43;;;;;;;1999.90;999.90;;;11.70;99.90;;;;;;4994893;28;20069;-85
2021/09/03 06:06:09;;;;;;;1999.90;999.90;;;11.70;99.90;;;;;;4994880;28;20030;-82
2021/09/03 06:08:34;;;;;;;1999.90;999.90;;;11.80;99.90;;;;;;4994612;28;20030;-82
2021/09/03 06:11:00;;;;;;;1999.90;999.90;;;11.90;99.90;;;;;;4995507;28;20038;-83
2021/09/03 06:13:26;;;;;;;1999.90;999.90;;;12.10;99.90;;;;;;4994356;28;20031;-82
2021/09/03 06:15:51;;;;;;;1999.90;999.90;;;12.20;99.90;;;;;;4995646;28;20050;-81
2021/09/03 06:18:17;;;;;;;1999.90;999.90;;;12.40;99.90;;;;;;4994257;28;20498;-82
2021/09/03 06:20:43;;;;;;;1999.90;999.90;;;12.50;99.90;;;;;;4994213;28;20033;-82
2021/09/03 06:23:08;;;;;;;1999.90;999.90;;;12.60;99.90;;;;;;4993916;28;20066;-83
2021/09/03 06:25:34;;;;;;;1999.90;999.90;;;12.70;99.90;;;;;;4993853;28;20054;-82
2021/09/03 06:28:00;;;;;;;1999.90;999.90;;;12.90;99.90;;;;;;4993693;28;20031;-82
2021/09/03 06:30:25;;;;;;;1999.90;999.90;;;13.00;99.90;;;;;;4992320;28;20027;-82
2021/09/03 06:32:51;;;;;;;1999.90;999.90;;;13.10;99.90;;;;;;4992728;28;20031;-83
2021/09/03 06:35:17;;;;;;;1999.90;999.90;;;13.20;99.90;;;;;;4994309;28;20015;-82
2021/09/03 06:37:43;;;;;;;1999.90;999.90;;;13.40;99.90;;;;;;4992818;28;20033;-82
2021/09/03 06:40:09;;;;;;;1999.90;999.90;;;13.50;99.90;;;;;;4992730;28;20026;-83
2021/09/03 06:42:34;;;;;;;1999.90;999.90;;;13.70;99.90;;;;;;4992679;28;20121;-81
2021/09/03 06:45:00;;;;;;;1999.90;999.90;;;13.80;99.90;;;;;;4992533;28;20450;-81
2021/09/03 06:47:27;;;;;;;1999.90;999.90;;;13.90;99.90;;;;;;4993844;28;20030;-82
2021/09/03 06:49:53;;;;;;;1999.90;999.90;;;14.00;99.90;;;;;;4992258;28;20030;-81
2021/09/03 06:52:28;;;;;;;1999.90;999.90;;;14.10;99.90;;;;;;4992389;28;20030;-81
2021/09/03 06:54:55;;;;;;;1999.90;999.90;;;14.20;99.90;;;;;;4992366;28;20482;-83
2021/09/03 06:57:21;;;;;;;1999.90;999.90;;;14.40;99.90;;;;;;4992897;28;20493;-82
2021/09/03 06:59:46;;;;;;;1999.90;999.90;;;14.50;99.90;;;;;;4994144;28;20023;-84
2021/09/03 07:02:13;;;;;;;1999.90;999.90;;;14.60;99.90;;;;;;4992512;28;20030;-83
2021/09/03 07:04:39;;;;;;;1999.90;999.90;;;14.80;99.90;;;;;;4992447;28;20041;-82
2021/09/03 07:07:04;;;;;;;1999.90;999.90;;;14.90;99.90;;;;;;4992463;28;20022;-81
2021/09/03 07:09:30;;;;;;;1999.90;999.90;;;15.10;99.90;;;;;;4992388;28;20081;-83
2021/09/03 07:11:56;;;;;;;1999.90;999.90;;;15.20;99.90;;;;;;4993389;28;20022;-82
2021/09/03 07:14:21;;;;;;;1999.90;999.90;;;15.30;99.90;;;;;;4992376;28;20466;-82
2021/09/03 07:16:47;;;;;;;1999.90;999.90;;;15.50;99.90;;;;;;4992200;28;20486;-81
2021/09/03 07:19:13;;;;;;;1999.90;999.90;;;15.60;99.90;;;;;;4992410;28;20033;-82
2021/09/03 07:21:38;;;;;;;1999.90;999.90;;;15.60;99.90;;;;;;4992332;28;20363;-82
2021/09/03 07:24:04;;;;;;;1999.90;999.90;;;15.70;99.90;;;;;;4992032;28;20084;-83
2021/09/03 07:26:31;;;;;;;1999.90;999.90;;;15.90;99.90;;;;;;4992046;28;20505;-82
2021/09/03 07:28:57;;;;;;;1999.90;999.90;;;16.10;99.90;;;;;;4992976;28;20034;-82
2021/09/03 07:31:23;;;;;;;1999.90;999.90;;;16.30;99.90;;;;;;4993423;28;20363;-85
2021/09/03 07:33:49;;;;;;;1999.90;999.90;;;16.50;99.90;;;;;;4993327;28;20037;-85
2021/09/03 07:36:14;;;;;;;1999.90;999.90;;;16.60;99.90;;;;;;4992933;28;20026;-82
2021/09/03 07:38:40;;;;;;;1999.90;999.90;;;16.70;99.90;;;;;;4994535;28;20022;-83
2021/09/03 07:41:06;;;;;;;1999.90;999.90;;;16.90;99.90;;;;;;4993323;28;20046;-84
2021/09/03 07:43:32;;;;;;;1999.90;999.90;;;17.10;99.90;;;;;;4993359;28;20045;-83
2021/09/03 07:45:58;;;;;;;1999.90;999.90;;;17.30;99.10;;;;;;4993378;28;20441;-83
2021/09/03 07:48:24;;;;;;;1999.90;999.90;;;17.40;98.10;;;;;;4993381;28;20121;-83
2021/09/03 07:50:50;;;;;;;1999.90;999.90;;;17.50;98.10;;;;;;4993567;28;20026;-82
2021/09/03 07:53:16;;;;;;;1999.90;999.90;;;17.60;94.70;;;;;;4993570;28;20026;-84
2021/09/03 07:55:42;;;;;;;1999.90;999.90;;;17.70;94.30;;;;;;4993127;28;20038;-83
2021/09/03 07:58:08;;;;;;;1999.90;999.90;;;17.90;95.90;;;;;;4993683;28;20037;-82
2021/09/03 08:00:35;;;;;;;1999.90;999.90;;;18.10;95.70;;;;;;4993291;28;20022;-83
2021/09/03 08:03:00;;;;;;;1999.90;999.90;;;18.20;95.20;;;;;;4993072;28;20076;-84
2021/09/03 08:05:26;;;;;;;1999.90;999.90;;;18.30;94.60;;;;;;4993443;28;20086;-84
2021/09/03 08:07:52;;;;;;;1999.90;999.90;;;18.40;93.90;;;;;;4993348;28;20022;-81
2021/09/03 08:10:18;;;;;;;1999.90;999.90;;;18.50;93.40;;;;;;4993242;28;20036;-83
2021/09/03 08:12:44;;;;;;;1999.90;999.90;;;18.70;94.60;;;;;;4993205;28;20462;-85
2021/09/03 08:15:11;;;;;;;1999.90;999.90;;;18.90;93.20;;;;;;4993235;28;20048;-81
2021/09/03 08:17:37;;;;;;;1999.90;999.90;;;19.10;93.80;;;;;;4993224;28;20081;-81
2021/09/03 08:20:05;;;;;;;1999.90;999.90;;;19.30;93.30;;;;;;4993404;28;20026;-81
2021/09/03 08:22:31;;;;;;;1999.90;999.90;;;19.40;92.80;;;;;;4992766;28;20030;-81
2021/09/03 08:24:57;;;;;;;1999.90;999.90;;;19.50;93.10;;;;;;4992263;28;20034;-81
2021/09/03 08:27:22;;;;;;;1999.90;999.90;;;19.60;91.00;;;;;;4991929;28;20101;-81
2021/09/03 08:29:48;;;;;;;1999.90;999.90;;;19.70;91.90;;;;;;4991911;28;20026;-81
2021/09/03 08:32:16;;;;;;;1999.90;999.90;;;19.90;92.30;;;;;;4992772;28;20466;-82
2021/09/03 08:34:43;;;;;;;1999.90;999.90;;;20.00;90.80;;;;;;4992469;28;20144;-81
2021/09/03 08:37:09;;;;;;;1999.90;999.90;;;20.10;90.40;;;;;;4991873;28;20084;-81
2021/09/03 08:39:34;;;;;;;1999.90;999.90;;;20.30;91.00;;;;;;4991865;28;20030;-81
2021/09/03 08:42:00;;;;;;;1999.90;999.90;;;20.40;90.10;;;;;;4991782;28;20443;-81
2021/09/03 08:44:33;;;;;;;1999.90;999.90;;;20.50;87.50;;;;;;4991571;28;20544;-80
2021/09/03 08:46:59;;;;;;;1999.90;999.90;;;20.60;86.40;;;;;;4991904;28;20026;-80
2021/09/03 08:49:26;;;;;;;1999.90;999.90;;;20.70;85.90;;;;;;4996788;28;20088;-79
2021/09/03 08:51:52;;;;;;;1999.90;999.90;;;20.80;89.60;;;;;;4996211;28;20026;-79
2021/09/03 08:54:21;;;;;;;1999.90;999.90;;;20.90;84.40;;;;;;4996165;28;20023;-79
2021/09/03 08:56:47;;;;;;;1999.90;999.90;;;21.00;81.50;;;;;;4996291;28;20026;-87
2021/09/03 08:59:14;;;;;;;1999.90;999.90;;;21.10;80.30;;;;;;4996684;28;20022;-82
2021/09/03 09:01:39;;;;;;;1999.90;999.90;;;21.10;78.10;;;;;;4996583;28;20030;-82
2021/09/03 09:04:14;;;;;;;1999.90;999.90;;;21.20;78.20;;;;;;4996135;28;20044;-82
2021/09/03 09:07:02;;;;;;;1999.90;999.90;;;21.20;77.60;;;;;;4995954;28;20030;-82
2021/09/03 09:09:33;;;;;;;1999.90;999.90;;;21.40;80.10;;;;;;4996122;28;20085;-82
2021/09/03 09:12:11;;;;;;;1999.90;999.90;;;21.50;77.50;;;;;;4996975;28;20089;-80
2021/09/03 09:15:00;;;;;;;1999.90;999.90;;;21.10;76.70;;;;;;4995999;28;20037;-80
2021/09/03 09:17:30;;;;;;;1999.90;999.90;;;20.90;78.00;;;;;;4996930;28;20019;-82
2021/09/03 09:19:56;;;;;;;1999.90;999.90;;;20.80;78.50;;;;;;4995934;28;20375;-81
2021/09/03 09:22:22;;;;;;;1999.90;999.90;;;20.90;80.60;;;;;;4995910;28;20058;-80
2021/09/03 09:24:48;;;;;;;1999.90;999.90;;;21.00;77.90;;;;;;4995535;28;20501;-80
2021/09/03 09:27:25;;;;;;;1999.90;999.90;;;21.00;77.80;;;;;;4995793;28;20034;-78
2021/09/03 09:29:52;;;;;;;1999.90;999.90;;;21.00;77.30;;;;;;4995874;28;20026;-81
2021/09/03 09:32:18;;;;;;;1999.90;999.90;;;21.10;77.30;;;;;;4995747;28;20032;-81
2021/09/03 09:34:46;;;;;;;1999.90;999.90;;;21.10;77.10;;;;;;4995983;28;20485;-80
2021/09/03 09:37:16;;;;;;;1999.90;999.90;;;21.20;77.10;;;;;;4995630;28;20039;-78
2021/09/03 09:39:48;;;;;;;1999.90;999.90;;;21.30;75.50;;;;;;4996574;28;20022;-81
2021/09/03 09:42:30;;;;;;;1999.90;999.90;;;21.40;73.60;;;;;;4995231;28;20421;-79
2021/09/03 09:45:11;;;;;;;1999.90;999.90;;;21.20;73.20;;;;;;4994781;28;20077;-79
2021/09/03 09:47:38;;;;;;;1999.90;999.90;;;21.10;73.00;;;;;;4994535;28;20022;-77
2021/09/03 09:50:27;;;;;;;1999.90;999.90;;;21.20;73.20;;;;;;4995454;28;20524;-79
2021/09/03 09:52:53;;;;;;;1999.90;999.90;;;21.30;71.80;;;;;;4995857;28;20022;-79
2021/09/03 09:55:19;;;;;;;1999.90;999.90;;;21.50;72.90;;;;;;4994725;28;20120;-79
2021/09/03 09:57:49;;;;;;;1999.90;999.90;;;21.70;71.60;;;;;;4994438;28;20474;-79
2021/09/03 10:00:16;;;;;;;1999.90;999.90;;;21.90;71.60;;;;;;4995429;28;20058;-79
2021/09/03 10:02:43;;;;;;;1999.90;999.90;;;22.10;69.30;;;;;;4994271;28;20026;-79
2021/09/03 10:05:10;;;;;;;1999.90;999.90;;;22.00;68.60;;;;;;4994045;28;20034;-78
2021/09/03 10:07:39;;;;;;;1999.90;999.90;;;22.00;69.70;;;;;;4995605;28;20914;-78
2021/09/03 10:10:05;;;;;;;1999.90;999.90;;;22.10;68.60;;;;;;4994250;28;20477;-83
2021/09/03 10:12:31;;;;;;;1999.90;999.90;;;22.00;68.10;;;;;;4994512;28;20080;-78
2021/09/03 10:14:57;;;;;;;1999.90;999.90;;;22.00;68.40;;;;;;4993756;28;20022;-77
2021/09/03 10:17:23;;;;;;;1999.90;999.90;;;21.90;69.20;;;;;;4993869;28;20030;-77
2021/09/03 10:19:52;;;;;;;1999.90;999.90;;;22.00;69.40;;;;;;4993968;28;20096;-77
2021/09/03 10:22:20;;;;;;;1999.90;999.90;;;22.00;68.80;;;;;;4993511;28;20121;-77
2021/09/03 10:24:47;;;;;;;1999.90;999.90;;;22.10;69.10;;;;;;4993222;28;20074;-79
2021/09/03 10:27:14;;;;;;;1999.90;999.90;;;22.20;68.60;;;;;;4993152;28;20026;-79
2021/09/03 10:29:46;;;;;;;1999.90;999.90;;;22.10;68.90;;;;;;4992631;28;20026;-78
2021/09/03 10:32:16;;;;;;;1999.90;999.90;;;21.90;68.00;;;;;;4993555;28;20073;-79
2021/09/03 10:34:51;;;;;;;1999.90;999.90;;;21.90;68.80;;;;;;4993906;28;20018;-78
2021/09/03 10:37:22;;;;;;;1999.90;999.90;;;21.90;69.40;;;;;;4994449;28;20030;-80
2021/09/03 10:39:47;;;;;;;1999.90;999.90;;;22.00;67.50;;;;;;4993319;28;20398;-79
2021/09/03 10:42:35;;;;;;;1999.90;999.90;;;21.90;66.60;;;;;;4993752;28;20027;-78
2021/09/03 10:45:09;;;;;;;1999.90;999.90;;;21.90;65.60;;;;;;4994959;28;20430;-79
2021/09/03 10:47:47;;;;;;;1999.90;999.90;;;21.90;66.80;;;;;;4994136;28;20026;-79
2021/09/03 10:50:41;;;;;;;1999.90;999.90;;;22.00;69.60;;;;;;4994118;28;20022;-78
2021/09/03 10:53:10;;;;;;;1999.90;999.90;;;22.20;69.60;;;;;;4993922;28;20018;-78
2021/09/03 10:55:49;;;;;;;1999.90;999.90;;;22.30;68.40;;;;;;4993736;28;20498;-79
2021/09/03 10:58:37;;;;;;;1999.90;999.90;;;22.30;67.60;;;;;;4993825;28;20084;-77
2021/09/03 11:01:12;;;;;;;1999.90;999.90;;;22.20;67.30;;;;;;4993972;28;20029;-78
2021/09/03 11:03:51;;;;;;;1999.90;999.90;;;22.00;68.00;;;;;;4993435;28;20074;-77
2021/09/03 11:06:27;;;;;;;1999.90;999.90;;;22.10;69.10;;;;;;4993749;28;20477;-78
2021/09/03 11:08:58;;;;;;;1999.90;999.90;;;22.20;68.40;;;;;;4993619;28;20045;-79
2021/09/03 11:11:32;;;;;;;1999.90;999.90;;;22.40;65.70;;;;;;4992948;28;20414;-78
2021/09/03 11:14:00;;;;;;;1999.90;999.90;;;22.50;65.60;;;;;;4993389;28;20026;-77
2021/09/03 11:16:47;;;;;;;1999.90;999.90;;;22.50;64.80;;;;;;4994517;28;20117;-78
2021/09/03 11:19:19;;;;;;;1999.90;999.90;;;22.40;65.90;;;;;;4993593;28;20018;-78
2021/09/03 11:21:58;;;;;;;1999.90;999.90;;;22.30;65.90;;;;;;4993153;28;20030;-77
2021/09/03 11:24:26;;;;;;;1999.90;999.90;;;22.20;66.50;;;;;;4993276;28;20481;-78
2021/09/03 11:26:54;;;;;;;1999.90;999.90;;;22.00;67.00;;;;;;4993038;28;20023;-77
2021/09/03 11:29:31;;;;;;;1999.90;999.90;;;21.90;67.20;;;;;;4993008;28;20061;-77
2021/09/03 11:32:03;;;;;;;1999.90;999.90;;;21.80;68.10;;;;;;4993342;28;20049;-77
2021/09/03 11:34:56;;;;;;;1999.90;999.90;;;21.80;67.90;;;;;;4994231;28;20030;-78
2021/09/03 11:37:32;;;;;;;1999.90;999.90;;;21.80;69.10;;;;;;4993016;28;20117;-78
2021/09/03 11:40:15;;;;;;;1999.90;999.90;;;21.90;71.00;;;;;;4993262;28;20026;-78
2021/09/03 11:42:42;;;;;;;1999.90;999.90;;;21.90;71.00;;;;;;4992679;28;20035;-77
2021/09/03 11:45:16;;;;;;;1999.90;999.90;;;22.00;69.60;;;;;;4992662;28;20030;-76
2021/09/03 11:47:51;;;;;;;1999.90;999.90;;;22.00;68.90;;;;;;4992946;28;20697;-77
2021/09/03 11:50:20;;;;;;;1999.90;999.90;;;22.00;68.10;;;;;;4993009;28;20422;-76
2021/09/03 11:52:46;;;;;;;1999.90;999.90;;;22.10;67.50;;;;;;4992656;28;20030;-76
2021/09/03 11:55:19;;;;;;;1999.90;999.90;;;22.20;69.40;;;;;;4992280;28;20509;-76
2021/09/03 11:57:52;;;;;;;1999.90;999.90;;;22.10;68.20;;;;;;4992547;28;20433;-77
2021/09/03 12:00:19;;;;;;;1999.90;999.90;;;21.90;68.70;;;;;;4992707;28;20030;-77
2021/09/03 12:02:46;;;;;;;1999.90;999.90;;;21.80;70.30;;;;;;4992306;28;20019;-76